Погода Махадаангана 2 недели

Антананариву, Мадагаскар

18 - 31 июля
  • 18июля
    Сегодня
    +18°
    +34°
    Ясно и безоблачно
    ВремяПогодаТемператураВлажностьДавлениеВетер, м/сВероятность осадков
    00:00Ясно и безоблачно+21°C50 %756 мм2.6 м/с5 %
    03:00Ясно и безоблачно+19°C66 %756 мм0.3 м/с5 %
    06:00Ясно и безоблачно+17°C70 %756 мм2.2 м/с5 %
    09:00Ясно и безоблачно+26°C48 %758 мм1.3 м/с5 %
    12:00Ясно и безоблачно+32°C26 %757 мм1.3 м/с5 %
    15:00Ясно и безоблачно+34°C21 %755 мм1.1 м/с5 %
    18:00Ясно и безоблачно+26°C35 %755 мм1.5 м/с5 %
    21:00Ясно и безоблачно+21°C44 %756 мм1.7 м/с5 %
  • 19июля
    Пятница
    +17°
    +34°
    Облачно с прояснениями
    ВремяПогодаТемператураВлажностьДавлениеВетер, м/сВероятность осадков
    00:00Ясно и безоблачно+21°C48 %756 мм3.1 м/с5 %
    03:00Ясно и безоблачно+19°C65 %755 мм1.0 м/с5 %
    06:00Ясно и безоблачно+18°C73 %755 мм1.7 м/с5 %
    09:00Ясно и безоблачно+25°C55 %757 мм1.0 м/с5 %
    12:00Ясно и безоблачно+32°C30 %755 мм1.3 м/с5 %
    15:00Облачно с прояснениями+34°C24 %754 мм1.7 м/с5 %
    18:00Небольшая облачность+26°C38 %754 мм1.2 м/с5 %
    21:00Ясно и безоблачно+23°C43 %754 мм0.9 м/с5 %
  • 20июля
    Суббота
    +17°
    +34°
    Ясно и безоблачно
    ВремяПогодаТемператураВлажностьДавлениеВетер, м/сВероятность осадков
    00:00Ясно и безоблачно+21°C50 %755 мм2.4 м/с5 %
    03:00Практически безоблачно+18°C64 %754 мм1.7 м/с5 %
    06:00Ясно и безоблачно+17°C74 %755 мм2.1 м/с5 %
    09:00Ясно и безоблачно+25°C52 %756 мм1.3 м/с5 %
    12:00Ясно и безоблачно+32°C31 %755 мм1.3 м/с5 %
    15:00Ясно и безоблачно+33°C28 %753 мм1.2 м/с5 %
    18:00Ясно и безоблачно+26°C41 %753 мм0.4 м/с5 %
    21:00Ясно и безоблачно+24°C43 %754 мм1.0 м/с5 %
  • 21июля
    Воскресенье
    +17°
    +34°
    Небольшая облачность
    ВремяПогодаТемператураВлажностьДавлениеВетер, м/сВероятность осадков
    00:00Ясно и безоблачно+20°C59 %755 мм2.2 м/с5 %
    03:00Ясно и безоблачно+19°C66 %754 мм2.2 м/с5 %
    06:00Ясно и безоблачно+17°C76 %755 мм1.6 м/с5 %
    09:00Практически безоблачно+25°C51 %757 мм1.5 м/с5 %
    12:00Облачно с прояснениями+32°C30 %755 мм1.4 м/с5 %
    15:00Небольшая облачность+33°C23 %754 мм1.0 м/с5 %
    18:00Ясно и безоблачно+27°C33 %754 мм1.6 м/с5 %
    21:00Небольшая облачность+23°C42 %755 мм0.6 м/с5 %
  • 22июля
    Понедельник
    +17°
    +35°
    Небольшая облачность
    ВремяПогодаТемператураВлажностьДавлениеВетер, м/сВероятность осадков
    00:00Облачно с прояснениями+22°C55 %756 мм2.5 м/с5 %
    03:00Небольшая облачность+20°C70 %755 мм1.8 м/с5 %
    06:00Практически безоблачно+18°C81 %756 мм1.9 м/с5 %
    09:00Небольшая облачность+26°C57 %757 мм1.2 м/с5 %
    12:00Небольшая облачность+32°C36 %756 мм1.8 м/с5 %
    15:00Небольшая облачность+34°C29 %755 мм1.4 м/с5 %
    18:00Практически безоблачно+27°C42 %755 мм1.0 м/с5 %
    21:00Практически безоблачно+23°C48 %756 мм2.4 м/с5 %
Мы используем cookies
Соглашаюсь